Terminal Aerodrome Forecast
Issued by NWS

Home | Current Version | Previous Version | Text Only | Print | Product List | Glossary On
Versions: 1 2 3 4 5 6 7 8 9 10 11 12 13
000
FTUS45 KRIW 162300
TAFCOD
TAF
KCOD 162328Z 1700/1724 09009KT P6SM VCSH SCT060 BKN100
     FM170300 20008KT P6SM SCT080 BKN150
     FM171400 VRB06KT P6SM FEW080 SCT200
     FM171900 23013KT P6SM SCT060 BKN100
      AMD LTD TO CLD VIS AND WIND=

USA.gov is the U.S. government's official web portal to all federal, state and local government web resources and services.